Terminal Aerodrome Forecast
Issued by NWS Sterling, VA

Current Version | Previous Version | Text Only | Print | Product List | Glossary Off
Versions: 1 2 3 4 5 6 7 8 9 10 11 12 13 14

000
FTUS41 KLWX 292340
TAFMRB
TAF
KMRB 292340Z 3000/3024 17007KT P6SM SCT150
     FM300500 19007KT P6SM BKN080
     FM301200 22006KT P6SM BKN035
     FM301500 28010G18KT P6SM BKN045
     FM301700 28014G22KT P6SM SCT040=

USA.gov is the U.S. government's official web portal to all federal, state and local government web resources and services.